createdAt,value
2022-10-21T00:01:41.232Z,8.99
2022-10-21T00:04:07.952Z,9.01
2022-10-21T00:06:34.797Z,9.03
2022-10-21T00:09:01.473Z,9.01
2022-10-21T00:11:28.275Z,9.01
2022-10-21T00:13:55.118Z,9.01
2022-10-21T00:16:21.838Z,8.99
2022-10-21T00:18:49.001Z,8.96
2022-10-21T00:21:18.946Z,8.94
2022-10-21T00:23:46.182Z,8.95
2022-10-21T00:26:14.098Z,8.88
2022-10-21T00:28:41.310Z,8.88
2022-10-21T00:31:12.421Z,8.89
2022-10-21T00:33:39.201Z,8.96
2022-10-21T00:36:07.732Z,8.99
2022-10-21T00:38:35.587Z,9.04
2022-10-21T00:41:02.898Z,9.05
2022-10-21T00:43:29.760Z,8.94
2022-10-21T00:46:02.178Z,8.91
2022-10-21T00:48:36.367Z,8.81
2022-10-21T00:51:07.668Z,8.80
2022-10-21T00:53:36.756Z,8.82
2022-10-21T00:56:14.150Z,8.75
2022-10-21T00:58:45.782Z,8.75
2022-10-21T01:01:15.199Z,8.81
2022-10-21T01:03:43.398Z,8.79
2022-10-21T01:06:12.719Z,8.79
2022-10-21T01:08:39.868Z,8.74
2022-10-21T01:11:13.394Z,8.69
2022-10-21T01:14:09.443Z,8.57
2022-10-21T01:17:20.787Z,8.51
2022-10-21T01:20:18.967Z,8.57
2022-10-21T01:23:31.751Z,8.61
2022-10-21T01:26:34.443Z,8.64
2022-10-21T01:29:27.379Z,8.53
2022-10-21T01:32:07.372Z,8.50
2022-10-21T01:34:50.344Z,8.57
2022-10-21T01:37:25.615Z,8.48
2022-10-21T01:39:57.238Z,8.42
2022-10-21T01:42:58.158Z,8.39
2022-10-21T01:46:00.115Z,8.34
2022-10-21T01:48:34.394Z,8.39
2022-10-21T01:51:07.137Z,8.41
2022-10-21T01:53:41.485Z,8.39
2022-10-21T01:56:11.202Z,8.49
2022-10-21T01:58:42.373Z,8.40
2022-10-21T02:01:13.176Z,8.42
2022-10-21T02:03:42.671Z,8.39
2022-10-21T02:06:09.600Z,8.35
2022-10-21T02:08:36.338Z,8.35
2022-10-21T02:11:07.134Z,8.36
2022-10-21T02:13:40.466Z,8.37
2022-10-21T02:16:10.062Z,8.33
2022-10-21T02:18:36.855Z,8.30
2022-10-21T02:21:08.642Z,8.26
2022-10-21T02:23:54.004Z,8.18
2022-10-21T02:26:26.041Z,8.16
2022-10-21T02:28:55.067Z,8.17
2022-10-21T02:31:57.942Z,8.19
2022-10-21T02:34:55.584Z,8.19
2022-10-21T02:38:01.228Z,8.24
2022-10-21T02:40:37.427Z,8.35
2022-10-21T02:43:09.537Z,8.36
2022-10-21T02:45:36.335Z,8.30
2022-10-21T02:48:04.088Z,8.23
2022-10-21T02:50:31.253Z,8.23
2022-10-21T02:52:58.098Z,8.26
2022-10-21T02:55:25.105Z,8.25
2022-10-21T02:57:51.707Z,8.26
2022-10-21T03:00:18.416Z,8.30
2022-10-21T03:02:44.999Z,8.15
2022-10-21T03:05:13.143Z,8.06
2022-10-21T03:07:41.286Z,8.03
2022-10-21T03:10:08.804Z,8.02
2022-10-21T03:12:35.559Z,8.05
2022-10-21T03:15:02.334Z,8.13
2022-10-21T03:17:29.114Z,8.17
2022-10-21T03:19:56.230Z,8.25
2022-10-21T03:22:22.824Z,8.09
2022-10-21T03:24:49.395Z,8.11
2022-10-21T03:27:16.034Z,8.15
2022-10-21T03:29:42.735Z,8.20
2022-10-21T03:32:09.323Z,8.23
2022-10-21T03:34:35.935Z,8.30
2022-10-21T03:37:02.497Z,8.37
2022-10-21T03:39:29.052Z,8.47
2022-10-21T03:41:56.753Z,8.51
2022-10-21T03:44:23.605Z,8.52
2022-10-21T03:46:50.150Z,8.49
2022-10-21T03:49:21.456Z,8.51
2022-10-21T03:51:48.480Z,8.36
2022-10-21T03:54:15.347Z,8.24
2022-10-21T03:56:42.441Z,8.13
2022-10-21T03:59:09.775Z,8.11
2022-10-21T04:01:36.682Z,8.06
2022-10-21T04:04:03.701Z,8.07
2022-10-21T04:06:30.455Z,8.06
2022-10-21T04:08:57.331Z,8.08
2022-10-21T04:11:24.175Z,8.13
2022-10-21T04:13:50.794Z,8.19
2022-10-21T04:16:20.139Z,8.26
2022-10-21T04:18:46.943Z,8.39
2022-10-21T04:21:14.402Z,8.38
2022-10-21T04:23:41.416Z,8.38
2022-10-21T04:26:08.282Z,8.41
2022-10-21T04:28:35.162Z,8.46
2022-10-21T04:31:02.322Z,8.45
2022-10-21T04:33:29.087Z,8.51
2022-10-21T04:35:56.005Z,8.54
2022-10-21T04:38:23.391Z,8.57
2022-10-21T04:41:01.273Z,8.63
2022-10-21T04:43:28.607Z,8.59
2022-10-21T04:45:55.536Z,8.55
2022-10-21T04:48:22.727Z,8.55
2022-10-21T04:50:53.497Z,8.49
2022-10-21T04:53:21.238Z,8.52
2022-10-21T04:55:54.021Z,8.53
2022-10-21T04:58:22.386Z,8.51
2022-10-21T05:00:50.649Z,8.49
2022-10-21T05:03:18.304Z,8.52
2022-10-21T05:05:45.087Z,8.43
2022-10-21T05:08:11.933Z,8.39
2022-10-21T05:10:38.760Z,8.38
2022-10-21T05:13:06.171Z,8.39
2022-10-21T05:15:33.893Z,8.37
2022-10-21T05:18:00.795Z,8.22
2022-10-21T05:20:27.478Z,8.23
2022-10-21T05:22:54.092Z,8.13
2022-10-21T05:25:21.954Z,8.16
2022-10-21T05:27:49.511Z,8.14
2022-10-21T05:30:16.264Z,8.08
2022-10-21T05:32:43.182Z,8.13
2022-10-21T05:35:12.016Z,8.07
2022-10-21T05:37:38.791Z,8.09
2022-10-21T05:40:06.412Z,8.09
2022-10-21T05:42:33.047Z,8.11
2022-10-21T05:44:59.825Z,8.15
2022-10-21T05:47:27.816Z,8.21
2022-10-21T05:49:54.434Z,8.26
2022-10-21T05:52:21.013Z,8.35
2022-10-21T05:54:47.756Z,8.40
2022-10-21T05:57:15.099Z,8.47
2022-10-21T05:59:41.886Z,8.51
2022-10-21T06:02:10.248Z,8.56
2022-10-21T06:04:38.730Z,8.57
2022-10-21T06:07:05.691Z,8.57
2022-10-21T06:09:32.702Z,8.59
2022-10-21T06:11:59.488Z,8.60
2022-10-21T06:14:26.851Z,8.62
2022-10-21T06:16:53.455Z,8.65
2022-10-21T06:19:20.070Z,8.68
2022-10-21T06:21:47.945Z,8.67
2022-10-21T06:24:15.011Z,8.71
2022-10-21T06:26:41.931Z,8.70
2022-10-21T06:29:08.523Z,8.71
2022-10-21T06:31:35.163Z,8.71
2022-10-21T06:34:01.994Z,8.71
2022-10-21T06:36:30.520Z,8.71
2022-10-21T06:38:58.417Z,8.74
2022-10-21T06:41:25.059Z,8.77
2022-10-21T06:43:51.663Z,8.81
2022-10-21T06:46:18.669Z,8.87
2022-10-21T06:48:45.409Z,8.89
2022-10-21T06:51:23.395Z,8.92
2022-10-21T06:53:55.245Z,8.97
2022-10-21T06:56:23.005Z,8.98
2022-10-21T06:58:50.809Z,9.00
2022-10-21T07:01:34.673Z,9.04
2022-10-21T07:04:09.770Z,9.05
2022-10-21T07:06:36.871Z,9.16
2022-10-21T07:09:05.386Z,9.18
2022-10-21T07:11:32.092Z,9.26
2022-10-21T07:14:00.594Z,9.34
2022-10-21T07:16:30.864Z,9.35
2022-10-21T07:18:58.062Z,9.35
2022-10-21T07:21:28.065Z,9.34
2022-10-21T07:23:59.074Z,9.27
2022-10-21T07:26:27.415Z,9.31
2022-10-21T07:28:55.847Z,9.37
2022-10-21T07:31:22.571Z,9.47
2022-10-21T07:33:49.657Z,9.55
2022-10-21T07:36:19.683Z,9.60
2022-10-21T07:38:47.936Z,9.68
2022-10-21T07:41:20.083Z,9.70
2022-10-21T07:43:46.916Z,9.75
2022-10-21T07:46:14.025Z,9.75
2022-10-21T07:48:40.615Z,9.67
2022-10-21T07:51:10.523Z,9.73
2022-10-21T07:53:37.850Z,9.79
2022-10-21T07:56:11.122Z,9.82
2022-10-21T07:58:38.499Z,9.84
2022-10-21T08:01:07.666Z,9.79
2022-10-21T08:03:34.848Z,9.85
2022-10-21T08:06:02.021Z,9.89
2022-10-21T08:08:29.184Z,9.89
2022-10-21T08:10:56.131Z,9.85
2022-10-21T08:13:23.104Z,9.91
2022-10-21T08:15:53.183Z,10.01
2022-10-21T08:18:21.315Z,10.14
2022-10-21T08:20:49.477Z,10.25
2022-10-21T08:23:21.026Z,10.30
2022-10-21T08:25:49.846Z,10.35
2022-10-21T08:28:16.934Z,10.36
2022-10-21T08:30:44.660Z,10.49
2022-10-21T08:33:12.630Z,10.46
2022-10-21T08:35:40.108Z,10.46
2022-10-21T08:40:44.994Z,10.52
2022-10-21T08:43:23.506Z,10.61
2022-10-21T08:46:03.390Z,10.60
2022-10-21T08:48:37.204Z,10.63
2022-10-21T08:51:07.229Z,10.79
2022-10-21T08:53:41.453Z,10.96
2022-10-21T08:56:18.716Z,11.07
2022-10-21T08:58:51.247Z,11.05
2022-10-21T09:01:43.168Z,11.01
2022-10-21T09:04:27.351Z,11.06
2022-10-21T09:07:38.010Z,11.11
2022-10-21T09:10:30.818Z,11.18
2022-10-21T09:13:20.491Z,11.24
2022-10-21T09:16:23.732Z,11.30
2022-10-21T09:19:19.910Z,11.42
2022-10-21T09:22:34.910Z,11.42
2022-10-21T09:25:31.448Z,11.43
2022-10-21T09:27:59.973Z,11.35
2022-10-21T09:30:27.098Z,11.35
2022-10-21T09:32:59.773Z,11.39
2022-10-21T09:35:44.061Z,11.38
2022-10-21T09:38:39.384Z,11.46
2022-10-21T09:43:50.270Z,11.61
2022-10-21T09:46:17.602Z,11.72
2022-10-21T09:49:16.348Z,11.90
2022-10-21T09:51:39.067Z,12.06
2022-10-21T09:54:11.796Z,12.15
2022-10-21T09:57:24.141Z,12.20
2022-10-21T10:00:00.409Z,12.23
2022-10-21T10:02:47.717Z,12.09
2022-10-21T10:05:33.839Z,12.10
2022-10-21T10:08:00.573Z,12.13
2022-10-21T10:10:34.277Z,11.99
2022-10-21T10:13:01.125Z,12.03
2022-10-21T10:15:36.048Z,12.07
2022-10-21T10:18:03.587Z,12.04
2022-10-21T10:20:30.391Z,12.01
2022-10-21T10:23:18.646Z,11.95
2022-10-21T10:25:51.035Z,12.03
2022-10-21T10:28:19.828Z,11.95
2022-10-21T10:30:52.575Z,11.98
2022-10-21T10:33:23.260Z,12.02
2022-10-21T10:36:03.317Z,11.89
2022-10-21T10:38:35.343Z,11.93
2022-10-21T10:41:04.609Z,11.94
2022-10-21T10:43:33.837Z,11.82
2022-10-21T10:46:07.362Z,11.84
2022-10-21T10:48:53.499Z,11.85
2022-10-21T10:51:35.093Z,11.95
2022-10-21T10:54:28.488Z,11.91
2022-10-21T10:57:05.630Z,11.99
2022-10-21T11:00:01.312Z,12.09
2022-10-21T11:03:10.024Z,12.06
2022-10-21T11:05:51.067Z,12.11
2022-10-21T11:08:37.131Z,12.07
2022-10-21T11:11:17.891Z,12.09
2022-10-21T11:13:44.598Z,12.20
2022-10-21T11:16:59.524Z,12.34
2022-10-21T11:19:54.920Z,12.42
2022-10-21T11:23:09.164Z,12.48
2022-10-21T11:25:47.485Z,12.53
2022-10-21T11:28:30.381Z,12.57
2022-10-21T11:34:23.834Z,12.59
2022-10-21T11:37:10.517Z,12.62
2022-10-21T11:40:17.551Z,12.66
2022-10-21T11:42:48.464Z,12.68
2022-10-21T11:45:38.146Z,12.76
2022-10-21T11:48:52.630Z,12.84
2022-10-21T11:52:04.863Z,12.82
2022-10-21T11:55:17.644Z,12.87
2022-10-21T11:58:22.766Z,12.91
2022-10-21T12:01:05.657Z,12.88
2022-10-21T12:04:11.397Z,12.96
2022-10-21T12:07:11.398Z,13.01
2022-10-21T12:10:04.207Z,12.95
2022-10-21T12:12:36.806Z,12.97
2022-10-21T12:15:11.976Z,13.03
2022-10-21T12:17:38.984Z,13.03
2022-10-21T12:20:27.188Z,13.11
2022-10-21T12:23:01.104Z,13.15
2022-10-21T12:25:40.732Z,13.01
2022-10-21T12:28:38.879Z,12.91
2022-10-21T12:31:45.499Z,12.81
2022-10-21T12:34:13.442Z,12.70
2022-10-21T12:36:46.749Z,12.65
2022-10-21T12:39:37.957Z,12.63
2022-10-21T12:42:18.541Z,12.57
2022-10-21T12:44:47.762Z,12.46
2022-10-21T12:47:45.090Z,12.46
2022-10-21T12:50:34.434Z,12.36
2022-10-21T12:53:21.289Z,12.32
2022-10-21T12:55:51.727Z,12.30
2022-10-21T12:58:41.357Z,12.40
2022-10-21T13:01:45.255Z,12.38
2022-10-21T13:04:32.053Z,12.49
2022-10-21T13:07:06.471Z,12.55
2022-10-21T13:09:50.874Z,12.50
2022-10-21T13:12:28.565Z,12.48
2022-10-21T13:15:22.174Z,12.41
2022-10-21T13:17:54.648Z,12.42
2022-10-21T13:20:41.331Z,12.46
2022-10-21T13:23:32.148Z,12.37
2022-10-21T13:26:06.690Z,12.50
2022-10-21T13:28:34.273Z,12.51
2022-10-21T13:31:01.255Z,12.55
2022-10-21T13:33:33.329Z,12.51
2022-10-21T13:36:04.094Z,12.45
2022-10-21T13:38:33.507Z,12.50
2022-10-21T13:41:22.931Z,12.46
2022-10-21T13:43:58.973Z,12.55
2022-10-21T13:46:39.128Z,12.40
2022-10-21T13:49:32.560Z,12.49
2022-10-21T13:51:59.245Z,12.51
2022-10-21T13:54:25.995Z,12.57
2022-10-21T13:56:52.522Z,12.57
2022-10-21T13:59:25.736Z,12.49
2022-10-21T14:01:55.014Z,12.46
2022-10-21T14:04:28.720Z,12.33
2022-10-21T14:06:58.578Z,12.36
2022-10-21T14:09:33.778Z,12.41
2022-10-21T14:12:07.561Z,12.40
2022-10-21T14:14:38.126Z,12.52
2022-10-21T14:17:14.688Z,12.49
2022-10-21T14:19:41.893Z,12.49
2022-10-21T14:22:10.696Z,12.48
2022-10-21T14:24:45.313Z,12.51
2022-10-21T14:27:25.728Z,12.51
2022-10-21T14:29:52.455Z,12.56
2022-10-21T14:32:23.534Z,12.53
2022-10-21T14:35:29.677Z,12.53
2022-10-21T14:38:16.123Z,12.53
2022-10-21T14:40:42.784Z,12.48
2022-10-21T14:43:20.682Z,12.45
2022-10-21T14:45:50.673Z,12.52
2022-10-21T14:48:45.262Z,12.49
2022-10-21T14:51:17.756Z,12.41
2022-10-21T14:54:04.135Z,12.42
2022-10-21T14:56:38.536Z,12.40
2022-10-21T14:59:24.987Z,12.39
2022-10-21T15:01:52.655Z,12.40
2022-10-21T15:04:43.623Z,12.34
2022-10-21T15:07:24.609Z,12.27
2022-10-21T15:10:23.628Z,12.26
2022-10-21T15:12:51.649Z,12.22
2022-10-21T15:15:44.465Z,12.20
2022-10-21T15:18:43.297Z,12.21
2022-10-21T15:21:12.485Z,12.18
2022-10-21T15:23:49.043Z,12.14
2022-10-21T15:26:40.158Z,12.07
2022-10-21T15:29:18.854Z,12.10
2022-10-21T15:31:45.571Z,12.08
2022-10-21T15:34:14.497Z,12.07
2022-10-21T15:36:42.177Z,12.07
2022-10-21T15:39:09.835Z,11.99
2022-10-21T15:41:37.263Z,11.93
2022-10-21T15:44:13.791Z,11.91
2022-10-21T15:46:46.291Z,11.86
2022-10-21T15:49:22.048Z,11.88
2022-10-21T15:51:49.719Z,11.85
2022-10-21T15:54:17.894Z,11.80
2022-10-21T15:56:46.228Z,11.77
2022-10-21T15:59:34.191Z,11.75
2022-10-21T16:02:02.259Z,11.68
2022-10-21T16:04:28.867Z,11.63
2022-10-21T16:06:55.523Z,11.61
2022-10-21T16:09:25.227Z,11.56
2022-10-21T16:12:01.446Z,11.50
2022-10-21T16:14:30.824Z,11.41
2022-10-21T16:16:58.637Z,11.32
2022-10-21T16:19:25.370Z,11.27
2022-10-21T16:21:51.972Z,11.21
2022-10-21T16:24:18.872Z,11.16
2022-10-21T16:26:48.318Z,11.18
2022-10-21T16:29:23.132Z,11.14
2022-10-21T16:31:50.157Z,11.16
2022-10-21T16:34:17.053Z,11.10
2022-10-21T16:36:44.006Z,11.09
2022-10-21T16:39:16.890Z,11.07
2022-10-21T16:41:43.461Z,11.01
2022-10-21T16:44:10.551Z,11.02
2022-10-21T16:46:40.101Z,10.95
2022-10-21T16:49:20.898Z,10.91
2022-10-21T16:51:47.470Z,10.85
2022-10-21T16:54:15.243Z,10.84
2022-10-21T16:56:41.851Z,10.82
2022-10-21T16:59:08.551Z,10.80
2022-10-21T17:01:35.562Z,10.74
2022-10-21T17:04:02.189Z,10.72
2022-10-21T17:06:28.969Z,10.66
2022-10-21T17:08:56.333Z,10.61
2022-10-21T17:11:34.699Z,10.60
2022-10-21T17:14:03.228Z,10.59
2022-10-21T17:16:29.785Z,10.54
2022-10-21T17:18:56.486Z,10.54
2022-10-21T17:21:26.514Z,10.53
2022-10-21T17:23:54.511Z,10.48
2022-10-21T17:26:21.359Z,10.41
2022-10-21T17:28:48.198Z,10.38
2022-10-21T17:31:25.787Z,10.34
2022-10-21T17:33:55.346Z,10.32
2022-10-21T17:36:22.139Z,10.29
2022-10-21T17:38:48.918Z,10.28
2022-10-21T17:41:17.134Z,10.28
2022-10-21T17:43:43.779Z,10.31
2022-10-21T17:46:17.393Z,10.28
2022-10-21T17:48:44.276Z,10.28
2022-10-21T17:51:10.871Z,10.30
2022-10-21T17:53:37.490Z,10.32
2022-10-21T17:56:06.952Z,10.31
2022-10-21T17:58:34.663Z,10.34
2022-10-21T18:01:08.659Z,10.29
2022-10-21T18:03:35.863Z,10.26
2022-10-21T18:06:08.477Z,10.18
2022-10-21T18:08:35.391Z,10.13
2022-10-21T18:11:02.754Z,10.13
2022-10-21T18:13:30.658Z,10.07
2022-10-21T18:16:03.608Z,10.02
2022-10-21T18:18:30.323Z,9.99
2022-10-21T18:21:20.025Z,10.01
2022-10-21T18:23:50.259Z,10.01
2022-10-21T18:26:20.337Z,9.98
2022-10-21T18:28:54.485Z,9.97
2022-10-21T18:31:21.696Z,9.94
2022-10-21T18:33:49.159Z,10.00
2022-10-21T18:36:17.426Z,9.87
2022-10-21T18:38:44.754Z,9.83
2022-10-21T18:41:20.149Z,9.85
2022-10-21T18:43:56.489Z,9.84
2022-10-21T18:46:23.744Z,9.79
2022-10-21T18:48:50.638Z,9.74
2022-10-21T18:51:19.120Z,9.77
2022-10-21T18:53:49.882Z,9.78
2022-10-21T18:56:20.459Z,9.80
2022-10-21T18:58:47.122Z,9.84
2022-10-21T19:01:15.195Z,9.88
2022-10-21T19:03:42.233Z,9.93
2022-10-21T19:06:39.525Z,9.89
2022-10-21T19:09:18.359Z,9.89
2022-10-21T19:11:45.922Z,9.88
2022-10-21T19:14:14.673Z,9.82
2022-10-21T19:16:42.891Z,9.73
2022-10-21T19:19:09.919Z,9.75
2022-10-21T19:21:36.967Z,9.72
2022-10-21T19:24:04.321Z,9.73
2022-10-21T19:26:32.523Z,9.73
2022-10-21T19:29:04.828Z,9.78
2022-10-21T19:31:36.044Z,9.78
2022-10-21T19:34:04.478Z,9.79
2022-10-21T19:36:31.051Z,9.83
2022-10-21T19:38:57.609Z,9.95
2022-10-21T19:41:24.451Z,9.98
2022-10-21T19:43:51.836Z,9.97
2022-10-21T19:46:25.671Z,9.95
2022-10-21T19:48:52.990Z,9.97
2022-10-21T19:51:22.558Z,9.93
2022-10-21T19:53:50.279Z,9.91
2022-10-21T19:56:20.897Z,9.87
2022-10-21T19:58:50.737Z,9.88
2022-10-21T20:01:21.221Z,9.88
2022-10-21T20:03:49.769Z,9.84
2022-10-21T20:06:25.806Z,9.79
2022-10-21T20:08:58.232Z,9.78
2022-10-21T20:11:25.078Z,9.79
2022-10-21T20:13:52.230Z,9.81
2022-10-21T20:16:29.561Z,9.80
2022-10-21T20:18:57.215Z,9.87
2022-10-21T20:21:25.075Z,9.95
2022-10-21T20:23:51.835Z,9.96
2022-10-21T20:26:19.370Z,9.94
2022-10-21T20:28:46.313Z,9.93
2022-10-21T20:31:15.216Z,9.96
2022-10-21T20:33:47.530Z,9.99
2022-10-21T20:36:17.871Z,10.01
2022-10-21T20:38:45.427Z,9.97
2022-10-21T20:41:15.599Z,9.94
2022-10-21T20:43:42.694Z,9.95
2022-10-21T20:46:12.193Z,9.92
2022-10-21T20:48:48.172Z,9.93
2022-10-21T20:51:21.059Z,9.90
2022-10-21T20:54:09.589Z,9.90
2022-10-21T20:56:38.594Z,9.93
2022-10-21T20:59:07.069Z,9.95
2022-10-21T21:01:37.050Z,9.93
2022-10-21T21:04:08.197Z,9.90
2022-10-21T21:06:40.098Z,9.91
2022-10-21T21:09:43.653Z,9.89
2022-10-21T21:11:54.002Z,9.90
2022-10-21T21:14:20.810Z,9.87
2022-10-21T21:16:47.413Z,9.87
2022-10-21T21:19:14.104Z,9.85
2022-10-21T21:21:40.943Z,9.86
2022-10-21T21:24:07.763Z,9.88
2022-10-21T21:26:36.571Z,9.83
2022-10-21T21:29:06.208Z,9.81
2022-10-21T21:31:34.025Z,9.79
2022-10-21T21:34:00.619Z,9.77
2022-10-21T21:36:27.348Z,9.74
2022-10-21T21:38:54.174Z,9.70
2022-10-21T21:41:23.299Z,9.70
2022-10-21T21:43:51.260Z,9.73
2022-10-21T21:46:25.441Z,9.67
2022-10-21T21:49:05.535Z,9.70
2022-10-21T21:51:35.265Z,9.76
2022-10-21T21:54:02.418Z,9.79
2022-10-21T21:56:29.453Z,9.84
2022-10-21T21:58:57.852Z,9.85
2022-10-21T22:01:27.515Z,9.88
2022-10-21T22:03:55.325Z,9.86
2022-10-21T22:08:56.344Z,9.92
2022-10-21T22:11:25.283Z,9.93
2022-10-21T22:13:52.633Z,9.96
2022-10-21T22:16:24.393Z,9.94
2022-10-21T22:18:51.395Z,9.93
2022-10-21T22:21:18.686Z,9.91
2022-10-21T22:23:45.661Z,9.90
2022-10-21T22:26:13.784Z,9.88
2022-10-21T22:28:40.961Z,9.74
2022-10-21T22:31:10.982Z,9.70
2022-10-21T22:33:38.865Z,9.70
2022-10-21T22:36:06.298Z,9.69
2022-10-21T22:38:33.565Z,9.65
2022-10-21T22:41:02.402Z,9.64
2022-10-21T22:43:29.844Z,9.59
2022-10-21T22:46:05.338Z,9.62
2022-10-21T22:48:41.988Z,9.64
2022-10-21T22:51:08.777Z,9.62
2022-10-21T22:53:36.609Z,9.60
2022-10-21T22:56:03.931Z,9.60
2022-10-21T22:58:30.808Z,9.49
2022-10-21T23:00:57.685Z,9.49
2022-10-21T23:03:24.827Z,9.52
2022-10-21T23:05:51.460Z,9.54
2022-10-21T23:08:18.613Z,9.64
2022-10-21T23:10:49.021Z,9.62
2022-10-21T23:13:15.837Z,9.67
2022-10-21T23:15:42.565Z,9.63
2022-10-21T23:18:09.264Z,9.68
2022-10-21T23:20:35.848Z,9.69
2022-10-21T23:23:02.473Z,9.63
2022-10-21T23:25:29.231Z,9.58
2022-10-21T23:27:55.875Z,9.62
2022-10-21T23:30:22.951Z,9.62
2022-10-21T23:32:50.239Z,9.56
2022-10-21T23:35:17.130Z,9.54
2022-10-21T23:37:44.048Z,9.59
2022-10-21T23:40:11.706Z,9.63
2022-10-21T23:42:42.655Z,9.62
2022-10-21T23:45:11.240Z,9.60
2022-10-21T23:47:39.567Z,9.63
2022-10-21T23:50:07.901Z,9.69
2022-10-21T23:52:34.753Z,9.75
2022-10-21T23:55:01.636Z,9.71
2022-10-21T23:57:28.240Z,9.70
2022-10-21T23:59:54.785Z,9.71
